Terminal Aerodrome Forecast
Issued by NWS Quad Cities IA IL

Home | Current Version | Previous Version | Text Only | Print | Product List | Glossary On
Versions: 1 2 3 4 5 6 7 8 9 10 11 12 13 14 15 16 17 18 19 20 21 22 23 24
000
FTUS43 KDVN 191700
TAFDBQ
TAF
KDBQ 191722Z 1918/2018 18016G22KT P6SM FEW060 SCT200
     FM200000 18012KT P6SM SCT250
     FM200600 20012KT P6SM SCT060 BKN250
     FM200900 21012KT 6SM BR VCSH SCT035 BKN080
     FM201400 24011KT P6SM BKN050=

USA.gov is the U.S. government's official web portal to all federal, state and local government web resources and services.